Time;durP1;ratioP1;P1;durP2;ratioP2;P2;SDS_P1;SDS_P2;PMS_P1;PMS_P2;Temp;Humidity;BMP_temperature;BMP_pressure;BME280_temperature;BME280_humidity;BME280_pressure;Samples;Min_cycle;Max_cycle;Signal;HPM_P1;HPM_P2
2022/09/03 00:00:38;;;;;;;2.85;1.45;;;;;;;24.94;29.42;101294.00;5073893;28;20032;-73
2022/09/03 00:03:16;;;;;;;5.25;1.35;;;;;;;24.77;29.79;101288.34;5086828;28;20072;-74
2022/09/03 00:06:03;;;;;;;2.38;1.38;;;;;;;24.79;29.98;101285.28;5072520;28;20047;-74
2022/09/03 00:08:50;;;;;;;3.20;1.40;;;;;;;24.77;29.99;101288.34;5072689;28;20044;-73
2022/09/03 00:11:19;;;;;;;6.20;1.33;;;;;;;24.49;29.96;101285.94;5054105;28;20044;-72
2022/09/03 00:13:54;;;;;;;4.70;1.50;;;;;;;24.77;29.69;101280.09;5072808;28;20054;-74
2022/09/03 00:16:23;;;;;;;1.95;1.23;;;;;;;24.62;30.14;101283.16;5063588;28;20045;-75
2022/09/03 00:18:57;;;;;;;1.50;1.13;;;;;;;24.67;29.82;101280.28;5072421;28;20041;-75
2022/09/03 00:21:34;;;;;;;5.60;1.33;;;;;;;24.74;30.11;101285.41;5072576;28;20036;-75
2022/09/03 00:24:04;;;;;;;3.58;0.95;;;;;;;24.62;29.84;101285.91;5072810;28;20020;-73
2022/09/03 00:26:33;;;;;;;;;;;;;;;24.54;30.25;101283.06;5073150;28;20036;-74
2022/09/03 00:29:10;;;;;;;8.05;1.05;;;;;;;24.37;30.20;101280.97;5072498;28;19916;-72
2022/09/03 00:31:42;;;;;;;1.77;1.33;;;;;;;24.48;30.21;101282.38;5072298;28;20047;-74
2022/09/03 00:34:22;;;;;;;5.03;1.40;;;;;;;24.40;30.04;101281.16;5072364;28;20077;-75
2022/09/03 00:36:48;;;;;;;1.13;0.95;;;;;;;24.39;30.50;101284.22;5072172;28;20041;-73
2022/09/03 00:39:19;;;;;;;2.20;1.30;;;;;;;24.37;30.65;101286.44;5072589;28;20115;-73
2022/09/03 00:42:10;;;;;;;7.95;1.50;;;;;;;23.65;31.69;101279.00;5082563;28;20485;-74
2022/09/03 00:44:54;;;;;;;2.92;1.30;;;;;;;23.81;31.50;101278.44;5092548;28;20047;-71
2022/09/03 00:47:38;;;;;;;3.20;1.38;;;;;;;24.04;31.12;101290.38;5092271;28;20123;-73
2022/09/03 00:50:24;;;;;;;3.45;1.50;;;;;;;23.81;31.29;101280.38;5092226;28;20036;-75
2022/09/03 00:53:03;;;;;;;2.20;1.20;;;;;;;24.01;31.00;101283.56;5091852;28;20063;-73
2022/09/03 00:55:57;;;;;;;8.45;1.35;;;;;;;23.89;30.96;101274.19;5091629;28;20036;-73
2022/09/03 00:58:28;;;;;;;2.78;1.20;;;;;;;23.40;32.11;101289.31;5091939;28;20040;-74
2022/09/03 01:00:54;;;;;;;4.22;1.10;;;;;;;23.64;31.71;101278.22;5091963;28;20115;-73
2022/09/03 01:03:35;;;;;;;5.78;1.50;;;;;;;23.87;30.85;101279.16;5092232;28;20026;-75
2022/09/03 01:06:06;;;;;;;7.53;1.42;;;;;;;23.92;31.38;101282.63;5092548;28;20089;-72
2022/09/03 01:08:59;;;;;;;1.73;1.20;;;;;;;23.89;30.75;101280.50;5092298;28;20036;-73
2022/09/03 01:12:00;;;;;;;6.10;1.23;;;;;;;24.06;30.62;101279.91;5092025;28;20127;-74
2022/09/03 01:14:42;;;;;;;1.10;0.90;;;;;;;23.85;30.98;101279.47;5091435;28;20531;-74
2022/09/03 01:17:39;;;;;;;5.32;1.05;;;;;;;23.96;31.01;101277.34;5077733;28;20076;-74
2022/09/03 01:20:31;;;;;;;4.57;1.40;;;;;;;23.92;30.90;101277.13;4989917;28;20046;-73
2022/09/03 01:23:26;;;;;;;10.45;1.20;;;;;;;23.86;30.64;101272.84;4992682;28;20046;-75
2022/09/03 01:26:21;;;;;;;2.47;1.00;;;;;;;23.99;30.52;101274.00;4993162;28;20470;-75
2022/09/03 01:29:15;;;;;;;3.75;1.20;;;;;;;23.73;31.66;101270.09;4993363;28;20043;-74
2022/09/03 01:32:16;;;;;;;2.42;1.33;;;;;;;23.72;31.50;101276.69;4992971;28;20511;-73
2022/09/03 01:35:00;;;;;;;2.63;1.02;;;;;;;23.84;31.36;101280.56;4878523;29;20422;-75
2022/09/03 01:37:58;;;;;;;3.70;1.35;;;;;;;23.40;31.49;101278.34;4879046;29;20049;-74
2022/09/03 01:40:40;;;;;;;7.18;1.40;;;;;;;23.34;32.14;101287.78;4878896;29;20045;-74
2022/09/03 01:43:18;;;;;;;2.38;1.20;;;;;;;23.45;31.80;101291.13;4897534;29;20055;-73
2022/09/03 01:45:51;;;;;;;2.00;0.93;;;;;;;23.44;31.85;101293.09;4897743;29;20044;-74
2022/09/03 01:48:17;;;;;;;7.68;1.00;;;;;;;23.68;31.15;101287.47;4897412;29;20043;-74
2022/09/03 01:50:56;;;;;;;1.65;1.10;;;;;;;23.58;31.67;101287.66;4898066;29;20517;-74
2022/09/03 01:53:34;;;;;;;1.60;1.00;;;;;;;23.59;31.71;101285.72;4897628;29;20044;-72
2022/09/03 01:56:36;;;;;;;9.95;1.33;;;;;;;23.40;32.04;101285.75;4943755;28;20058;-74
2022/09/03 01:59:14;;;;;;;3.38;1.35;;;;;;;23.46;31.69;101295.53;4973535;28;20154;-74
2022/09/03 02:01:52;;;;;;;4.55;1.00;;;;;;;23.43;31.76;101290.63;4973535;28;20043;-73
2022/09/03 02:04:23;;;;;;;4.63;1.38;;;;;;;23.32;32.03;101292.75;4973246;28;20034;-74
2022/09/03 02:06:56;;;;;;;4.40;1.30;;;;;;;23.50;31.98;101291.06;4972934;28;20035;-73
2022/09/03 02:09:22;;;;;;;2.78;1.23;;;;;;;23.28;31.72;101288.94;4972944;28;20147;-73
2022/09/03 02:12:09;;;;;;;2.13;0.80;;;;;;;23.05;32.36;101295.34;5022448;28;20041;-73
2022/09/03 02:14:35;;;;;;;1.85;0.95;;;;;;;23.24;32.46;101282.41;5076459;28;20041;-74
2022/09/03 02:17:01;;;;;;;1.67;1.13;;;;;;;22.98;32.52;101283.09;5094239;28;20051;-74
2022/09/03 02:19:28;;;;;;;5.18;0.77;;;;;;;22.76;33.00;101282.88;5093540;28;20047;-74
2022/09/03 02:21:56;;;;;;;1.33;1.23;;;;;;;23.02;32.78;101284.94;5093088;28;20043;-73
2022/09/03 02:24:23;;;;;;;4.05;1.17;;;;;;;22.98;33.01;101289.38;5093063;28;20076;-75
2022/09/03 02:26:48;;;;;;;1.92;1.10;;;;;;;22.94;33.17;101288.34;5093546;28;20043;-75
2022/09/03 02:29:16;;;;;;;5.07;1.08;;;;;;;23.06;32.18;101283.25;5093045;28;20032;-75
2022/09/03 02:31:42;;;;;;;4.13;1.25;;;;;;;23.14;32.65;101289.97;5093107;28;20501;-73
2022/09/03 02:34:08;;;;;;;6.80;1.15;;;;;;;23.07;32.33;101284.88;5092784;28;20040;-73
2022/09/03 02:36:38;;;;;;;1.52;1.05;;;;;;;22.97;32.78;101287.78;5093017;28;20039;-75
2022/09/03 02:39:04;;;;;;;1.33;1.10;;;;;;;22.88;32.53;101299.69;5093496;28;20116;-79
2022/09/03 02:41:31;;;;;;;4.82;1.13;;;;;;;22.84;32.90;101287.69;5093344;28;20078;-78
2022/09/03 02:44:05;;;;;;;2.78;1.40;;;;;;;22.92;33.03;101293.31;5092777;28;20028;-77
2022/09/03 02:46:45;;;;;;;2.30;1.20;;;;;;;22.76;33.27;101286.41;5074095;28;20055;-79
2022/09/03 02:49:11;;;;;;;7.65;1.30;;;;;;;22.69;33.13;101280.50;5093040;28;20054;-78
2022/09/03 02:51:41;;;;;;;4.32;1.10;;;;;;;22.66;33.09;101281.09;5093057;28;20036;-78
2022/09/03 02:54:07;;;;;;;3.50;0.95;;;;;;;22.84;32.99;101284.97;5093500;28;20035;-78
2022/09/03 02:56:33;;;;;;;2.35;0.98;;;;;;;22.84;33.27;101283.00;5092814;28;20043;-79
2022/09/03 02:58:59;;;;;;;3.80;1.20;;;;;;;22.72;33.18;101279.91;5092989;28;20533;-77
2022/09/03 03:01:25;;;;;;;2.05;1.20;;;;;;;22.62;33.61;101278.09;5093244;28;20141;-78
2022/09/03 03:03:51;;;;;;;3.60;1.67;;;;;;;22.52;33.76;101275.50;5093007;28;20024;-78
2022/09/03 03:06:19;;;;;;;5.13;1.20;;;;;;;22.66;33.60;101275.63;5093151;28;20024;-78
2022/09/03 03:08:45;;;;;;;2.40;1.20;;;;;;;22.53;33.43;101266.16;5093829;28;20520;-80
2022/09/03 03:11:11;;;;;;;4.30;1.60;;;;;;;22.54;33.70;101276.00;5093523;28;20064;-77
2022/09/03 03:13:37;;;;;;;5.75;1.13;;;;;;;22.58;33.40;101279.81;5092796;28;20093;-78
2022/09/03 03:16:07;;;;;;;10.35;1.60;;;;;;;22.56;33.38;101271.03;5077533;28;20090;-79
2022/09/03 03:18:33;;;;;;;2.80;1.10;;;;;;;22.51;33.77;101267.53;5034255;28;1096710;-78
2022/09/03 03:21:11;;;;;;;6.03;1.55;;;;;;;22.26;34.23;101276.09;5055809;28;20059;-78
2022/09/03 03:23:37;;;;;;;0.90;0.80;;;;;;;22.09;34.77;101273.00;5073467;28;20029;-78
2022/09/03 03:26:05;;;;;;;6.75;1.10;;;;;;;22.31;33.88;101270.56;5073233;28;20157;-78
2022/09/03 03:28:34;;;;;;;3.30;1.20;;;;;;;22.37;34.09;101269.38;5073261;28;20519;-79
2022/09/03 03:31:10;;;;;;;1.85;0.90;;;;;;;22.42;33.67;101274.78;5073197;28;20072;-78
2022/09/03 03:33:36;;;;;;;1.45;1.13;;;;;;;22.45;33.81;101277.75;5073373;28;20024;-78
2022/09/03 03:36:12;;;;;;;3.50;0.90;;;;;;;22.45;33.94;101276.94;5073966;28;20036;-79
2022/09/03 03:38:39;;;;;;;3.03;1.05;;;;;;;22.36;34.14;101284.19;5073353;28;20051;-78
2022/09/03 03:41:14;;;;;;;2.88;1.00;;;;;;;22.23;33.86;101273.94;5077378;28;20527;-79
2022/09/03 03:43:40;;;;;;;1.42;1.13;;;;;;;21.93;34.46;101275.09;5092537;28;20042;-77
2022/09/03 03:46:06;;;;;;;1.60;1.02;;;;;;;22.21;33.83;101274.22;5092946;28;20111;-79
2022/09/03 03:48:32;;;;;;;2.35;1.30;;;;;;;22.31;33.80;101273.31;5093400;28;20074;-79
2022/09/03 03:51:03;;;;;;;3.03;0.93;;;;;;;22.16;34.04;101268.00;5093795;28;20020;-78
2022/09/03 03:53:28;;;;;;;;;;;;;;;22.22;33.80;101275.03;5076039;28;20124;-77
2022/09/03 03:55:55;;;;;;;2.15;1.25;;;;;;;22.19;34.18;101272.91;5093168;28;20007;-79
2022/09/03 03:58:21;;;;;;;2.08;0.95;;;;;;;22.17;34.01;101270.44;5093103;28;20185;-77
2022/09/03 04:00:48;;;;;;;4.63;1.20;;;;;;;22.07;34.29;101272.47;5092360;28;20111;-80
2022/09/03 04:03:14;;;;;;;3.72;1.08;;;;;;;21.97;34.48;101276.16;5085643;28;20024;-78
2022/09/03 04:05:39;;;;;;;3.90;1.13;;;;;;;22.13;33.98;101272.13;5093824;28;20032;-78
2022/09/03 04:08:05;;;;;;;3.67;1.30;;;;;;;22.21;34.16;101259.72;5093147;28;20060;-79
2022/09/03 04:10:30;;;;;;;1.65;1.05;;;;;;;22.09;34.32;101265.63;5092946;28;20036;-79
2022/09/03 04:12:56;;;;;;;1.55;0.98;;;;;;;22.00;34.23;101267.34;5092514;28;20028;-78
2022/09/03 04:15:21;;;;;;;2.25;1.08;;;;;;;21.95;34.55;101272.06;5092705;28;20040;-78
2022/09/03 04:17:47;;;;;;;2.33;0.98;;;;;;;22.15;34.17;101269.09;5093592;28;20012;-79
2022/09/03 04:20:12;;;;;;;1.48;1.10;;;;;;;21.96;34.33;101273.69;5092846;28;20051;-79
2022/09/03 04:22:37;;;;;;;2.63;0.80;;;;;;;22.12;34.20;101275.97;5093172;28;20118;-77
2022/09/03 04:25:03;;;;;;;1.95;1.05;;;;;;;22.18;33.96;101272.06;5093200;28;20053;-80
2022/09/03 04:27:29;;;;;;;3.72;1.70;;;;;;;22.03;34.53;101271.44;5092703;28;20059;-79
2022/09/03 04:29:54;;;;;;;2.70;1.10;;;;;;;21.98;34.32;101276.94;5093658;28;20040;-78
2022/09/03 04:35:04;;;;;;;4.43;1.20;;;;;;;22.13;34.19;101276.78;5092969;28;20047;-80
2022/09/03 04:37:29;;;;;;;1.17;0.90;;;;;;;22.06;34.08;101271.66;5092558;28;20047;-77
2022/09/03 04:39:55;;;;;;;2.28;0.90;;;;;;;22.11;34.49;101268.06;5092567;28;20055;-78
2022/09/03 04:42:20;;;;;;;2.00;1.30;;;;;;;22.00;34.27;101269.25;5073548;28;20177;-78
2022/09/03 04:44:46;;;;;;;2.38;1.40;;;;;;;22.02;34.54;101273.34;5092879;28;20027;-75
2022/09/03 04:47:11;;;;;;;2.08;1.00;;;;;;;21.98;34.50;101266.81;5091834;28;20031;-74
2022/09/03 04:49:38;;;;;;;4.22;0.93;;;;;;;22.01;34.48;101276.38;5091752;28;20040;-75
2022/09/03 04:52:04;;;;;;;2.00;1.05;;;;;;;21.97;34.46;101273.41;5091991;28;20499;-73
2022/09/03 04:54:29;;;;;;;8.20;1.00;;;;;;;21.92;34.48;101267.16;5091803;28;20040;-74
2022/09/03 04:56:55;;;;;;;5.30;1.10;;;;;;;21.91;34.76;101268.28;5092255;28;20039;-74
2022/09/03 04:59:20;;;;;;;7.38;0.88;;;;;;;21.93;34.38;101268.81;5091693;28;20032;-73
2022/09/03 05:01:46;;;;;;;5.13;1.13;;;;;;;21.90;34.71;101272.09;5091821;28;20044;-74
2022/09/03 05:04:11;;;;;;;3.63;1.08;;;;;;;21.79;35.02;101277.69;5091925;28;20342;-74
2022/09/03 05:06:37;;;;;;;1.88;1.10;;;;;;;21.75;35.29;101279.34;5091917;28;20036;-73
2022/09/03 05:09:03;;;;;;;2.05;1.10;;;;;;;21.69;35.19;101266.00;5092395;28;20401;-75
2022/09/03 05:11:29;;;;;;;2.50;1.13;;;;;;;21.67;34.91;101269.03;5073616;28;20479;-75
2022/09/03 05:13:56;;;;;;;1.65;1.30;;;;;;;21.76;35.19;101261.00;5073521;28;20069;-74
2022/09/03 05:16:22;;;;;;;4.78;1.20;;;;;;;21.67;35.32;101270.94;5074194;28;20115;-74
2022/09/03 05:18:50;;;;;;;2.35;1.05;;;;;;;21.61;35.53;101272.09;5087312;28;20047;-75
2022/09/03 05:21:17;;;;;;;2.78;1.00;;;;;;;21.67;35.56;101279.16;5091899;28;20466;-74
2022/09/03 05:23:45;;;;;;;4.18;0.93;;;;;;;21.68;35.65;101272.56;5092193;28;20020;-74
2022/09/03 05:26:17;;;;;;;3.58;1.00;;;;;;;21.81;34.98;101270.03;5091695;28;20111;-73
2022/09/03 05:28:43;;;;;;;3.78;0.75;;;;;;;21.85;35.03;101273.00;5091419;28;20051;-74
2022/09/03 05:31:13;;;;;;;1.65;1.00;;;;;;;21.86;35.32;101271.88;5091760;28;20434;-75
2022/09/03 05:33:42;;;;;;;5.82;1.33;;;;;;;21.83;35.34;101262.34;5091917;28;20036;-76
2022/09/03 05:36:10;;;;;;;1.40;0.70;;;;;;;21.84;34.91;101266.69;5091958;28;20422;-74
2022/09/03 05:38:36;;;;;;;5.70;1.42;;;;;;;21.75;35.06;101260.19;5091468;28;20040;-73
2022/09/03 05:41:04;;;;;;;1.58;0.73;;;;;;;21.79;34.83;101261.25;5088039;28;20088;-72
2022/09/03 05:43:31;;;;;;;3.38;1.05;;;;;;;21.77;34.99;101271.69;5071322;28;20063;-73
2022/09/03 05:46:01;;;;;;;2.38;0.90;;;;;;;21.93;34.70;101269.63;5071125;28;20094;-74
2022/09/03 05:48:29;;;;;;;3.55;1.23;;;;;;;22.01;34.43;101269.00;5071400;28;20040;-75
2022/09/03 05:50:59;;;;;;;2.10;1.00;;;;;;;21.95;34.71;101267.41;5071631;28;20102;-72
2022/09/03 05:53:25;;;;;;;5.13;1.35;;;;;;;22.06;35.00;101270.84;5071267;28;20071;-73
2022/09/03 05:55:59;;;;;;;2.67;1.00;;;;;;;22.01;35.21;101265.44;5070817;28;20071;-73
2022/09/03 05:58:29;;;;;;;5.93;1.02;;;;;;;22.17;34.23;101270.44;5084968;28;20411;-72
2022/09/03 06:00:54;;;;;;;5.25;1.50;;;;;;;21.99;35.02;101267.66;5091317;28;20038;-75
2022/09/03 06:03:19;;;;;;;1.75;1.00;;;;;;;22.23;34.83;101261.03;5090960;28;20024;-75
2022/09/03 06:05:53;;;;;;;17.08;1.30;;;;;;;22.20;34.56;101264.38;5092171;28;20028;-74
2022/09/03 06:08:21;;;;;;;2.97;0.98;;;;;;;21.82;35.50;101265.34;5093243;28;20036;-73
2022/09/03 06:10:47;;;;;;;2.55;1.05;;;;;;;22.03;35.08;101263.22;5094995;28;20047;-74
2022/09/03 06:13:12;;;;;;;1.50;1.10;;;;;;;22.03;34.72;101263.22;5094639;28;20036;-74
2022/09/03 06:15:38;;;;;;;3.70;0.90;;;;;;;22.32;34.39;101261.22;5072688;28;20029;-73
2022/09/03 06:18:04;;;;;;;1.52;0.68;;;;;;;22.22;34.14;101253.13;5084323;28;20035;-72
2022/09/03 06:20:31;;;;;;;1.38;1.08;;;;;;;22.23;34.47;101261.03;5094793;28;20132;-73
2022/09/03 06:22:56;;;;;;;1.95;1.02;;;;;;;22.21;34.49;101257.78;5094660;28;20046;-73
2022/09/03 06:25:22;;;;;;;1.60;1.00;;;;;;;22.27;34.44;101256.63;5094504;28;20040;-72
2022/09/03 06:27:48;;;;;;;0.95;0.85;;;;;;;22.25;34.73;101258.84;5094379;28;20032;-74
2022/09/03 06:30:15;;;;;;;2.55;0.80;;;;;;;22.41;34.23;101256.72;5094573;28;20369;-73
2022/09/03 06:32:49;;;;;;;0.93;0.73;;;;;;;22.65;34.03;101258.34;5094979;28;20024;-73
2022/09/03 06:35:15;;;;;;;2.22;0.93;;;;;;;22.59;33.91;101261.44;5094368;28;20491;-74
2022/09/03 06:37:42;;;;;;;1.73;0.95;;;;;;;22.48;34.29;101268.16;5087009;28;20052;-72
2022/09/03 06:40:11;;;;;;;1.98;1.00;;;;;;;22.75;33.66;101260.13;5055731;28;20393;-75
2022/09/03 06:42:37;;;;;;;2.45;0.85;;;;;;;22.14;34.66;101262.00;5073967;28;20138;-73
2022/09/03 06:45:05;;;;;;;1.50;0.80;;;;;;;22.60;34.40;101272.09;5074186;28;20045;-75
2022/09/03 06:47:32;;;;;;;4.63;1.17;;;;;;;23.00;33.34;101262.50;5073927;28;20109;-74
2022/09/03 06:49:58;;;;;;;3.50;1.15;;;;;;;23.27;33.26;101267.28;5074392;28;20039;-74
2022/09/03 06:52:24;;;;;;;2.05;1.00;;;;;;;23.03;33.30;101263.84;5073910;28;20029;-74
2022/09/03 06:54:49;;;;;;;5.20;1.08;;;;;;;23.28;33.37;101263.44;5073934;28;20043;-73
2022/09/03 06:57:15;;;;;;;1.17;0.88;;;;;;;23.09;33.24;101260.72;5078624;28;20036;-75
2022/09/03 06:59:42;;;;;;;6.30;1.48;;;;;;;23.27;32.99;101256.31;5075933;28;20040;-72
2022/09/03 07:02:08;;;;;;;3.25;1.08;;;;;;;23.51;32.69;101263.34;5094074;28;20032;-71
2022/09/03 07:04:33;;;;;;;5.38;0.90;;;;;;;22.95;33.19;101261.75;5094121;28;20063;-73
2022/09/03 07:06:59;;;;;;;3.67;0.85;;;;;;;23.24;33.41;101260.47;5094013;28;20035;-75
2022/09/03 07:09:25;;;;;;;2.90;0.95;;;;;;;23.60;32.87;101262.66;5093626;28;20104;-75
2022/09/03 07:11:51;;;;;;;9.70;1.25;;;;;;;23.11;33.46;101272.22;5094438;28;20083;-75
2022/09/03 07:14:19;;;;;;;5.70;0.90;;;;;;;23.73;32.42;101268.16;5075530;28;20036;-72
2022/09/03 07:16:45;;;;;;;4.32;1.05;;;;;;;23.82;32.62;101273.78;5073454;28;20040;-73
2022/09/03 07:19:12;;;;;;;8.95;1.13;;;;;;;23.50;32.91;101266.38;5090791;28;20043;-75
2022/09/03 07:21:40;;;;;;;11.00;0.88;;;;;;;23.84;32.90;101271.53;5093551;28;20069;-73
2022/09/03 07:24:06;;;;;;;4.45;1.00;;;;;;;24.02;32.65;101278.88;5094081;28;20031;-74
2022/09/03 07:26:35;;;;;;;1.33;0.80;;;;;;;23.86;32.75;101275.59;5092798;28;20024;-74
2022/09/03 07:29:00;;;;;;;1.83;0.90;;;;;;;23.83;32.60;101275.38;5093063;28;20049;-74
2022/09/03 07:31:27;;;;;;;5.70;0.95;;;;;;;24.45;31.87;101274.75;5093152;28;20523;-75
2022/09/03 07:34:07;;;;;;;1.38;0.82;;;;;;;24.42;31.79;101272.59;5086271;28;20051;-74
2022/09/03 07:36:39;;;;;;;2.38;1.13;;;;;;;24.41;32.25;101269.03;5072667;28;20404;-73
2022/09/03 07:39:05;;;;;;;1.38;0.82;;;;;;;24.65;31.82;101277.03;5073213;28;20461;-73
2022/09/03 07:41:33;;;;;;;5.32;1.15;;;;;;;24.96;31.16;101274.47;5072547;28;20109;-73
2022/09/03 07:44:04;;;;;;;4.32;1.15;;;;;;;24.96;31.49;101268.97;5076019;28;20760;-73
2022/09/03 07:46:32;;;;;;;5.05;1.60;;;;;;;25.08;31.04;101272.78;5081550;28;20032;-71
2022/09/03 07:48:58;;;;;;;8.38;1.30;;;;;;;25.01;31.18;101274.34;5083626;28;20107;-74
2022/09/03 07:51:30;;;;;;;4.45;1.20;;;;;;;24.86;31.37;101277.44;5082612;28;20103;-73
2022/09/03 07:53:58;;;;;;;1.67;1.20;;;;;;;25.13;31.32;101274.59;5084123;28;20028;-73
2022/09/03 07:56:25;;;;;;;3.40;0.90;;;;;;;25.12;30.97;101273.78;5083016;28;20036;-74
2022/09/03 07:58:51;;;;;;;2.15;0.90;;;;;;;25.42;30.74;101272.25;5083641;28;20496;-73
2022/09/03 08:01:18;;;;;;;4.57;1.10;;;;;;;25.31;31.20;101278.28;5082775;28;20056;-75
2022/09/03 08:03:54;;;;;;;3.22;0.85;;;;;;;25.38;31.10;101271.22;5083837;28;20090;-73
2022/09/03 08:06:25;;;;;;;2.88;1.20;;;;;;;25.77;30.59;101267.75;5083549;28;20040;-75
2022/09/03 08:08:58;;;;;;;6.10;0.85;;;;;;;25.67;30.39;101274.34;5081659;28;20463;-72
2022/09/03 08:11:25;;;;;;;2.60;1.20;;;;;;;25.59;30.37;101274.31;5081540;28;20063;-72
2022/09/03 08:14:01;;;;;;;2.10;1.02;;;;;;;25.43;30.35;101268.38;5081332;28;20037;-72
2022/09/03 08:16:33;;;;;;;2.95;0.95;;;;;;;25.85;29.92;101275.25;5082538;28;20614;-75
2022/09/03 08:18:58;;;;;;;3.60;1.00;;;;;;;25.98;29.81;101271.59;5081619;28;20048;-73
2022/09/03 08:21:25;;;;;;;8.77;1.08;;;;;;;26.20;29.83;101276.25;5082636;28;20115;-75
2022/09/03 08:23:53;;;;;;;4.70;1.00;;;;;;;26.42;29.50;101270.63;5085027;28;20456;-76
2022/09/03 08:26:20;;;;;;;2.15;1.08;;;;;;;26.14;29.06;101269.28;5083277;28;20039;-71
2022/09/03 08:28:45;;;;;;;4.63;1.00;;;;;;;26.41;29.03;101271.78;5083736;28;20028;-75
2022/09/03 08:31:19;;;;;;;2.35;0.93;;;;;;;26.39;28.64;101269.34;5084178;28;20040;-75
2022/09/03 08:33:47;;;;;;;4.68;1.10;;;;;;;26.55;29.06;101272.47;5084070;28;20031;-75
2022/09/03 08:36:18;;;;;;;5.10;1.10;;;;;;;26.49;28.91;101271.00;5085083;28;20033;-74
2022/09/03 08:38:45;;;;;;;1.67;0.90;;;;;;;26.60;28.71;101272.31;5085837;28;20039;-73
2022/09/03 08:41:15;;;;;;;4.22;0.80;;;;;;;26.87;28.31;101275.63;5084369;28;20051;-74
2022/09/03 08:43:49;;;;;;;1.90;0.93;;;;;;;26.78;28.77;101266.53;5086861;28;20063;-75
2022/09/03 08:46:15;;;;;;;13.32;1.08;;;;;;;27.15;28.12;101267.84;5087929;28;20055;-73
2022/09/03 08:48:41;;;;;;;2.17;1.00;;;;;;;26.92;28.45;101261.69;5065484;28;20035;-75
2022/09/03 08:51:09;;;;;;;4.28;0.90;;;;;;;27.07;28.27;101257.59;5088089;28;20047;-76
2022/09/03 08:53:45;;;;;;;1.58;0.80;;;;;;;27.15;28.20;101269.78;5084909;28;20036;-74
2022/09/03 08:56:19;;;;;;;1.05;0.77;;;;;;;27.48;27.73;101268.97;5085095;28;20039;-76
2022/09/03 08:58:44;;;;;;;6.70;0.88;;;;;;;27.48;27.39;101268.13;5066353;28;20032;-73
2022/09/03 09:01:40;;;;;;;2.55;1.23;;;;;;;27.56;27.57;101270.88;5085695;28;20024;-75
2022/09/03 09:04:29;;;;;;;2.38;0.95;;;;;;;27.44;28.05;101269.97;5078044;28;20035;-73
2022/09/03 09:07:04;;;;;;;1.77;0.90;;;;;;;27.48;27.42;101273.66;5081902;28;20488;-75
2022/09/03 09:09:50;;;;;;;4.55;1.10;;;;;;;27.68;27.22;101271.03;5080309;28;20021;-75
2022/09/03 09:12:34;;;;;;;10.13;0.80;;;;;;;27.77;27.13;101276.53;4990805;28;20125;-73
2022/09/03 09:15:27;;;;;;;2.70;0.90;;;;;;;28.15;26.94;101271.03;4992121;28;20541;-74
2022/09/03 09:18:26;;;;;;;2.92;1.05;;;;;;;28.60;26.57;101274.88;4991512;28;20046;-74
2022/09/03 09:20:57;;;;;;;1.58;1.13;;;;;;;28.46;26.48;101275.09;4986626;28;20388;-73
2022/09/03 09:23:32;;;;;;;0.85;0.75;;;;;;;28.52;26.21;101273.75;4986062;28;20041;-73
2022/09/03 09:26:02;;;;;;;1.60;0.75;;;;;;;28.26;26.49;101280.59;4986419;28;20034;-75
2022/09/03 09:28:35;;;;;;;4.90;0.98;;;;;;;28.46;26.63;101280.63;4996492;28;20101;-75
2022/09/03 09:31:03;;;;;;;5.80;1.42;;;;;;;28.61;26.01;101273.75;4985373;28;20042;-74
2022/09/03 09:33:31;;;;;;;1.23;0.70;;;;;;;28.85;25.59;101276.69;4990027;28;20042;-73
2022/09/03 09:35:59;;;;;;;5.63;0.70;;;;;;;29.11;25.75;101268.16;4990075;28;20061;-76
2022/09/03 09:38:30;;;;;;;1.73;0.90;;;;;;;29.39;25.01;101272.00;4989587;28;20061;-75
2022/09/03 09:41:14;;;;;;;2.38;0.70;;;;;;;29.30;25.10;101265.75;4989917;28;20050;-74
2022/09/03 09:43:40;;;;;;;6.65;1.05;;;;;;;29.59;24.65;101267.56;4992212;28;20034;-72
2022/09/03 09:46:12;;;;;;;4.43;0.70;;;;;;;29.54;24.97;101259.47;4993526;28;20538;-74
2022/09/03 09:48:49;;;;;;;6.18;1.00;;;;;;;29.65;24.81;101264.22;5009180;28;20024;-74
2022/09/03 09:51:25;;;;;;;1.88;0.82;;;;;;;29.62;25.03;101255.81;5075327;28;20036;-73
2022/09/03 09:54:17;;;;;;;3.63;0.80;;;;;;;29.56;24.30;101266.28;5075975;28;20033;-75
2022/09/03 09:56:43;;;;;;;8.90;0.80;;;;;;;29.72;24.39;101253.41;5075415;28;20170;-75
2022/09/03 09:59:10;;;;;;;5.05;0.80;;;;;;;29.56;23.91;101263.53;5066564;28;20038;-74
2022/09/03 10:01:38;;;;;;;1.55;0.90;;;;;;;30.06;24.38;101257.72;5063931;28;20094;-74
2022/09/03 10:04:20;;;;;;;2.22;1.08;;;;;;;30.23;23.67;101261.09;5065110;28;20098;-74
2022/09/03 10:06:55;;;;;;;2.00;0.77;;;;;;;30.39;23.42;101254.88;5065201;28;20044;-76
2022/09/03 10:09:23;;;;;;;1.30;0.70;;;;;;;30.76;22.79;101267.53;5066205;28;20025;-73
2022/09/03 10:12:04;;;;;;;2.45;0.77;;;;;;;30.42;23.19;101268.03;5063223;28;20048;-73
2022/09/03 10:14:37;;;;;;;7.28;0.70;;;;;;;30.25;23.60;101264.31;5062622;28;20037;-74
2022/09/03 10:17:13;;;;;;;0.73;0.63;;;;;;;30.49;23.12;101255.19;5063403;28;20059;-74
2022/09/03 10:22:55;;;;;;;1.50;1.00;;;;;;;30.97;22.56;101254.31;5064868;28;21240;-74
2022/09/03 10:25:23;;;;;;;5.95;1.00;;;;;;;31.39;22.04;101250.00;5062518;28;20052;-75
2022/09/03 10:27:52;;;;;;;8.00;1.00;;;;;;;31.50;21.13;101250.28;5063207;28;20049;-73
2022/09/03 10:30:18;;;;;;;2.97;0.57;;;;;;;31.55;21.80;101242.50;5064564;28;20060;-72
2022/09/03 10:33:03;;;;;;;3.15;0.75;;;;;;;31.41;21.89;101244.88;5063806;28;20090;-74
2022/09/03 10:35:32;;;;;;;3.25;1.23;;;;;;;31.40;21.54;101243.28;5060957;28;20124;-73
2022/09/03 10:38:07;;;;;;;5.78;0.85;;;;;;;31.91;21.34;101244.22;5059476;28;20043;-73
2022/09/03 10:40:41;;;;;;;9.88;0.93;;;;;;;32.05;20.23;101241.03;5061547;28;20040;-75
2022/09/03 10:43:31;;;;;;;3.42;0.90;;;;;;;31.83;21.42;101248.00;5060687;28;20111;-72
2022/09/03 10:46:13;;;;;;;2.17;0.90;;;;;;;31.27;21.22;101238.94;5065376;28;20052;-72
2022/09/03 10:48:57;;;;;;;1.50;0.80;;;;;;;31.59;21.15;101245.34;5059741;28;20056;-74
2022/09/03 10:51:26;;;;;;;5.05;0.90;;;;;;;31.92;20.66;101235.56;5059236;28;20036;-73
2022/09/03 10:54:13;;;;;;;2.53;0.70;;;;;;;32.29;19.99;101238.84;5060177;28;20040;-72
2022/09/03 10:56:42;;;;;;;5.38;0.90;;;;;;;31.87;20.32;101235.00;5063606;28;20037;-73
2022/09/03 10:59:32;;;;;;;2.70;0.90;;;;;;;31.68;20.67;101224.59;5051236;28;20405;-72
2022/09/03 11:02:25;;;;;;;1.35;0.70;;;;;;;32.46;20.39;101235.69;5050783;28;20064;-72
2022/09/03 11:05:08;;;;;;;1.95;0.88;;;;;;;32.90;20.25;101222.34;5062033;28;20036;-71
2022/09/03 11:07:58;;;;;;;3.78;0.60;;;;;;;33.00;19.79;101224.56;5066217;28;20067;-72
2022/09/03 11:10:29;;;;;;;1.08;0.80;;;;;;;32.20;20.05;101229.88;5064594;28;20518;-72
2022/09/03 11:13:04;;;;;;;2.28;0.75;;;;;;;32.28;19.86;101225.28;5063674;28;20040;-72
2022/09/03 11:15:56;;;;;;;4.47;0.75;;;;;;;32.74;19.00;101221.59;5052770;28;20032;-72
2022/09/03 11:18:27;;;;;;;6.72;0.80;;;;;;;32.65;19.10;101219.03;5072517;28;20449;-73
2022/09/03 11:20:59;;;;;;;2.67;0.95;;;;;;;32.78;19.01;101219.69;5074118;28;20103;-73
2022/09/03 11:23:27;;;;;;;1.48;0.90;;;;;;;32.76;18.83;101213.69;5073640;28;20063;-72
2022/09/03 11:25:57;;;;;;;9.32;0.80;;;;;;;33.32;18.36;101222.41;5073838;28;20016;-72
2022/09/03 11:28:44;;;;;;;;;;;;;;;33.36;19.12;101221.28;5083719;28;20039;-73
2022/09/03 11:31:12;;;;;;;0.98;0.70;;;;;;;33.34;19.01;101220.84;5085211;28;19973;-72
2022/09/03 11:33:48;;;;;;;3.90;1.23;;;;;;;33.24;18.88;101213.09;5071644;28;20503;-73
2022/09/03 11:36:29;;;;;;;1.92;1.00;;;;;;;33.08;18.87;101217.94;5075536;28;20021;-71
2022/09/03 11:38:54;;;;;;;3.75;0.65;;;;;;;33.40;19.05;101211.03;5081276;28;20455;-72
2022/09/03 11:41:34;;;;;;;1.05;0.50;;;;;;;33.80;18.84;101209.75;5085387;28;20036;-73
2022/09/03 11:44:15;;;;;;;2.75;0.82;;;;;;;34.51;17.71;101206.94;5082045;28;20028;-73
2022/09/03 11:46:53;;;;;;;1.58;0.80;;;;;;;33.51;17.98;101203.69;5081765;28;20040;-72
2022/09/03 11:49:28;;;;;;;2.00;0.70;;;;;;;34.04;18.22;101196.25;5083425;28;20033;-72
2022/09/03 11:52:03;;;;;;;1.27;0.85;;;;;;;33.96;18.49;101193.69;5080383;28;20040;-73
2022/09/03 11:54:31;;;;;;;4.55;0.70;;;;;;;34.27;18.10;101187.81;5080662;28;20030;-74